Time;durP1;ratioP1;P1;durP2;ratioP2;P2;SDS_P1;SDS_P2;PMS_P1;PMS_P2;Temp;Humidity;BMP_temperature;BMP_pressure;BME280_temperature;BME280_humidity;BME280_pressure;Samples;Min_cycle;Max_cycle;Signal;HPM_P1;HPM_P2
2021/12/16 00:09:47;;;;;;;19.50;9.65;;;8.30;99.90;;;;;;5070853;28;20037;-81
2021/12/16 00:29:30;;;;;;;19.38;9.35;;;8.40;99.90;;;;;;5086207;28;20083;-81
2021/12/16 00:34:23;;;;;;;19.95;9.75;;;8.40;99.90;;;;;;5058010;28;20051;-80
2021/12/16 00:36:51;;;;;;;18.98;8.90;;;8.30;99.90;;;;;;5045547;28;20029;-80
2021/12/16 00:39:22;;;;;;;17.13;8.55;;;8.30;99.90;;;;;;5036837;28;20041;-80
2021/12/16 00:41:52;;;;;;;20.10;9.82;;;8.50;99.90;;;;;;5056418;28;20083;-80
2021/12/16 00:44:47;;;;;;;18.60;9.38;;;8.50;99.90;;;;;;5038124;28;20128;-80
2021/12/16 00:47:33;;;;;;;22.67;10.02;;;8.40;99.90;;;;;;5052748;28;20098;-81
2021/12/16 00:50:20;;;;;;;20.58;9.85;;;8.30;99.90;;;;;;5052100;28;20050;-81
2021/12/16 00:55:46;;;;;;;18.55;9.32;;;8.30;99.90;;;;;;5085744;28;20047;-80
2021/12/16 00:58:24;;;;;;;15.15;9.13;;;8.30;99.90;;;;;;5047499;28;20048;-80
2021/12/16 01:01:01;;;;;;;19.48;9.07;;;8.30;99.90;;;;;;5069410;28;20071;-80
2021/12/16 01:03:39;;;;;;;21.30;10.05;;;8.30;99.90;;;;;;5030218;28;20052;-80
2021/12/16 01:37:05;;;;;;;21.00;9.98;;;8.30;99.90;;;;;;5047667;28;20561;-81
2021/12/16 01:50:13;;;;;;;19.70;10.20;;;8.30;99.90;;;;;;5069987;28;20552;-80
2021/12/16 01:53:06;;;;;;;21.30;10.00;;;8.30;99.90;;;;;;5048454;28;20544;-81
2021/12/16 01:55:43;;;;;;;20.83;10.25;;;8.30;99.90;;;;;;5051229;28;20369;-80
2021/12/16 01:58:19;;;;;;;22.08;9.70;;;8.30;99.90;;;;;;5030255;28;20043;-80
2021/12/16 02:01:32;;;;;;;24.55;10.10;;;8.30;99.90;;;;;;5038027;28;20098;-80
2021/12/16 02:04:08;;;;;;;16.95;9.88;;;9.40;99.90;;;;;;5063501;28;20050;-80
2021/12/16 02:09:08;;;;;;;;;;;8.30;99.90;;;;;;5062125;28;20502;-81
2021/12/16 02:36:13;;;;;;;20.30;11.23;;;8.30;99.90;;;;;;5045087;28;20048;-80
2021/12/16 02:38:42;;;;;;;25.05;13.27;;;8.20;99.90;;;;;;5046927;28;20041;-80
2021/12/16 02:41:08;;;;;;;20.98;11.93;;;8.30;99.90;;;;;;5031121;28;20036;-80
2021/12/16 02:48:43;;;;;;;27.05;13.77;;;8.30;99.90;;;;;;5072047;28;20182;-80
2021/12/16 02:51:13;;;;;;;23.05;13.23;;;8.20;99.90;;;;;;5047489;28;20046;-80
2021/12/16 02:53:43;;;;;;;25.20;13.90;;;8.20;99.90;;;;;;5049965;28;20419;-80
2021/12/16 02:56:08;;;;;;;23.80;13.63;;;8.20;99.90;;;;;;5072955;28;20041;-80
2021/12/16 02:58:39;;;;;;;24.30;12.70;;;8.20;99.90;;;;;;5054437;28;20047;-80
2021/12/16 03:01:16;;;;;;;23.33;13.35;;;8.30;99.90;;;;;;5070851;28;20056;-81
2021/12/16 03:03:43;;;;;;;27.60;13.95;;;8.20;99.90;;;;;;5058059;28;20114;-81
2021/12/16 03:06:11;;;;;;;28.80;14.00;;;8.20;99.90;;;;;;5056311;28;20082;-81
2021/12/16 03:08:39;;;;;;;26.88;13.35;;;8.20;99.90;;;;;;5049042;28;20531;-81
2021/12/16 03:21:06;;;;;;;30.38;15.18;;;8.10;99.90;;;;;;5048520;28;20075;-81
2021/12/16 03:23:50;;;;;;;25.42;14.55;;;8.10;99.90;;;;;;5059672;28;20071;-81
2021/12/16 03:31:53;;;;;;;32.28;14.50;;;8.10;99.90;;;;;;5055705;28;20040;-81
2021/12/16 03:37:16;;;;;;;25.10;15.90;;;8.00;99.90;;;;;;5069119;28;20492;-81
2021/12/16 03:39:47;;;;;;;24.17;15.25;;;8.00;99.90;;;;;;5065763;28;20059;-81
2021/12/16 03:42:17;;;;;;;32.40;16.83;;;8.00;99.90;;;;;;5055603;28;20044;-81
2021/12/16 03:44:58;;;;;;;36.75;17.73;;;8.10;99.90;;;;;;5027971;28;20064;-81
2021/12/16 03:47:37;;;;;;;30.08;16.13;;;8.00;99.90;;;;;;5071714;28;20040;-81
2021/12/16 03:50:08;;;;;;;25.02;14.98;;;8.00;99.90;;;;;;5081657;28;20400;-81
2021/12/16 03:52:34;;;;;;;26.90;15.65;;;8.00;99.90;;;;;;5070349;28;20037;-81
2021/12/16 03:55:00;;;;;;;25.80;15.07;;;8.00;99.90;;;;;;5054428;28;20072;-81
2021/12/16 03:57:29;;;;;;;33.00;16.67;;;8.30;99.90;;;;;;5030872;28;20123;-81
2021/12/16 03:59:55;;;;;;;27.90;15.43;;;7.90;99.90;;;;;;5025845;28;20079;-81
2021/12/16 04:02:27;;;;;;;27.38;16.60;;;7.80;99.90;;;;;;5049526;28;20061;-81
2021/12/16 04:04:53;;;;;;;35.95;17.02;;;7.80;99.90;;;;;;5039868;28;20037;-81
2021/12/16 04:07:23;;;;;;;31.17;17.10;;;7.90;99.90;;;;;;5057384;28;20127;-81
2021/12/16 04:09:50;;;;;;;27.38;16.70;;;7.70;99.90;;;;;;5052521;28;20082;-81
2021/12/16 04:12:20;;;;;;;26.92;16.73;;;7.70;99.90;;;;;;5035020;28;20071;-81
2021/12/16 04:14:51;;;;;;;35.13;18.05;;;7.60;99.90;;;;;;5081423;28;20377;-81
2021/12/16 04:17:20;;;;;;;29.08;17.77;;;7.70;99.90;;;;;;5062095;28;20131;-81
2021/12/16 04:19:47;;;;;;;32.33;17.23;;;7.50;99.90;;;;;;5065712;28;20071;-80
2021/12/16 04:22:17;;;;;;;33.47;18.02;;;7.50;99.90;;;;;;5015193;28;20036;-81
2021/12/16 04:24:46;;;;;;;38.10;19.45;;;7.50;99.90;;;;;;5068492;28;20097;-80
2021/12/16 04:27:12;;;;;;;37.05;18.42;;;7.60;99.90;;;;;;5053680;28;20104;-80
2021/12/16 04:29:38;;;;;;;35.30;19.15;;;7.40;99.90;;;;;;5020489;28;20048;-80
2021/12/16 04:32:06;;;;;;;33.03;18.85;;;7.40;99.90;;;;;;5049950;28;20044;-81
2021/12/16 04:34:32;;;;;;;50.92;21.77;;;7.30;99.90;;;;;;5034163;28;20102;-80
2021/12/16 04:36:59;;;;;;;40.35;21.38;;;7.30;99.90;;;;;;5031681;28;20119;-80
2021/12/16 04:39:28;;;;;;;37.60;21.25;;;7.20;99.90;;;;;;5019647;28;20089;-81
2021/12/16 04:41:56;;;;;;;31.95;19.95;;;7.20;99.90;;;;;;5052257;28;20032;-81
2021/12/16 04:44:23;;;;;;;43.95;20.50;;;7.10;99.90;;;;;;5050857;28;20061;-80
2021/12/16 04:46:49;;;;;;;41.78;20.63;;;7.10;99.90;;;;;;5033916;28;20041;-80
2021/12/16 04:49:16;;;;;;;39.53;21.33;;;7.10;99.90;;;;;;5042693;28;20032;-81
2021/12/16 04:51:45;;;;;;;37.53;21.25;;;7.50;99.90;;;;;;5053923;28;20039;-81
2021/12/16 04:54:13;;;;;;;42.50;22.80;;;7.00;99.90;;;;;;5028591;28;20076;-80
2021/12/16 04:56:40;;;;;;;40.88;22.17;;;7.00;99.90;;;;;;5063462;28;20105;-80
2021/12/16 04:59:08;;;;;;;44.40;22.75;;;7.00;99.90;;;;;;5074553;28;20043;-80
2021/12/16 05:01:36;;;;;;;45.70;23.20;;;7.00;99.90;;;;;;5036270;28;20489;-81
2021/12/16 05:04:02;;;;;;;42.25;23.42;;;7.10;99.90;;;;;;5064316;28;20040;-80
2021/12/16 05:06:28;;;;;;;48.75;23.35;;;7.00;99.90;;;;;;5090272;28;20056;-80
2021/12/16 05:08:54;;;;;;;40.15;22.48;;;7.50;99.90;;;;;;5036754;28;20032;-81
2021/12/16 05:11:19;;;;;;;46.95;23.30;;;7.50;99.90;;;;;;5058546;28;20032;-81
2021/12/16 05:13:47;;;;;;;42.28;22.73;;;7.10;99.90;;;;;;5037702;28;20484;-81
2021/12/16 05:16:13;;;;;;;44.42;23.08;;;7.10;99.90;;;;;;5053616;28;20504;-81
2021/12/16 05:18:40;;;;;;;43.17;22.63;;;7.40;99.90;;;;;;5035396;28;20417;-81
2021/12/16 05:24:25;;;;;;;45.60;23.73;;;7.10;99.90;;;;;;5079360;28;20040;-82
2021/12/16 05:26:57;;;;;;;36.53;21.55;;;7.20;99.90;;;;;;5062960;28;20040;-81
2021/12/16 05:29:24;;;;;;;42.50;24.10;;;7.20;99.90;;;;;;5036024;28;20036;-81
2021/12/16 05:31:52;;;;;;;46.13;23.33;;;7.50;99.90;;;;;;5053018;28;20032;-81
2021/12/16 05:34:18;;;;;;;42.22;20.75;;;7.30;99.90;;;;;;5034295;28;20047;-81
2021/12/16 05:36:46;;;;;;;43.63;23.30;;;7.30;99.90;;;;;;5033289;28;20395;-82
2021/12/16 05:39:14;;;;;;;47.13;23.40;;;8.10;99.90;;;;;;5030177;28;20493;-81
2021/12/16 05:41:40;;;;;;;42.55;21.92;;;7.40;99.90;;;;;;5035051;28;20120;-81
2021/12/16 05:44:07;;;;;;;41.75;22.00;;;7.40;99.90;;;;;;5046494;28;20028;-81
2021/12/16 05:46:33;;;;;;;44.55;23.08;;;7.40;99.90;;;;;;5085307;28;20033;-81
2021/12/16 05:49:00;;;;;;;40.85;21.63;;;7.40;99.90;;;;;;5006442;28;20051;-80
2021/12/16 05:51:31;;;;;;;44.97;23.58;;;7.90;99.90;;;;;;5055746;28;20037;-81
2021/12/16 05:53:59;;;;;;;46.57;23.67;;;7.40;99.90;;;;;;5050924;28;20514;-80
2021/12/16 05:56:26;;;;;;;34.00;21.15;;;7.50;99.90;;;;;;5051244;28;20037;-82
2021/12/16 05:58:52;;;;;;;42.50;23.63;;;7.40;99.90;;;;;;5052990;28;20040;-81
2021/12/16 06:01:22;;;;;;;36.63;21.88;;;7.40;99.90;;;;;;5034731;28;20057;-81
2021/12/16 06:03:49;;;;;;;44.45;23.58;;;7.70;99.90;;;;;;5053611;28;20051;-81
2021/12/16 06:06:15;;;;;;;36.53;22.25;;;7.50;99.90;;;;;;5048581;28;20037;-81
2021/12/16 06:08:43;;;;;;;38.28;21.67;;;7.50;99.90;;;;;;5086457;28;20045;-80
2021/12/16 06:11:18;;;;;;;40.90;22.45;;;7.50;99.90;;;;;;5066458;28;20126;-81
2021/12/16 06:14:01;;;;;;;40.53;22.63;;;7.80;99.90;;;;;;5021696;28;20041;-80
2021/12/16 06:27:28;;;;;;;36.17;20.92;;;7.50;99.90;;;;;;5035324;28;20416;-81
2021/12/16 06:29:54;;;;;;;39.45;21.40;;;7.50;99.90;;;;;;5047824;28;20041;-82
2021/12/16 06:32:20;;;;;;;41.08;20.38;;;7.50;99.90;;;;;;5032569;28;20050;-78
2021/12/16 06:34:47;;;;;;;42.95;21.25;;;7.50;99.90;;;;;;5064845;28;20380;-80
2021/12/16 06:37:14;;;;;;;35.28;21.38;;;7.40;99.90;;;;;;5048487;28;20051;-81
2021/12/16 06:39:40;;;;;;;41.63;22.30;;;7.40;99.90;;;;;;5070469;28;20123;-80
2021/12/16 06:42:08;;;;;;;42.17;22.50;;;7.30;99.90;;;;;;5084621;28;20033;-80
2021/12/16 06:44:42;;;;;;;41.97;22.90;;;7.30;99.90;;;;;;5051037;28;20051;-78
2021/12/16 06:47:13;;;;;;;42.47;21.77;;;7.30;99.90;;;;;;5048966;28;20075;-78
2021/12/16 06:49:42;;;;;;;42.80;22.58;;;7.50;99.90;;;;;;5031246;28;20041;-78
2021/12/16 06:52:11;;;;;;;43.90;21.30;;;7.20;99.90;;;;;;5064390;28;20128;-78
2021/12/16 06:57:38;;;;;;;44.85;23.42;;;7.40;99.90;;;;;;5085052;28;20127;-81
2021/12/16 07:00:16;;;;;;;44.67;22.35;;;8.10;99.90;;;;;;5068463;28;20043;-81
2021/12/16 07:02:56;;;;;;;42.75;22.65;;;7.20;99.90;;;;;;5064141;28;20053;-80
2021/12/16 07:05:36;;;;;;;43.88;21.63;;;7.20;99.90;;;;;;5079922;28;20051;-81
2021/12/16 07:08:04;;;;;;;38.20;20.75;;;7.10;99.90;;;;;;5063982;28;20041;-80
2021/12/16 07:10:30;;;;;;;39.42;21.92;;;7.10;99.90;;;;;;5048399;28;20025;-80
2021/12/16 07:12:58;;;;;;;46.92;23.02;;;7.30;99.90;;;;;;5030661;28;20102;-79
2021/12/16 07:15:27;;;;;;;53.35;24.52;;;7.00;99.90;;;;;;5044797;28;20052;-76
2021/12/16 07:17:54;;;;;;;49.60;23.40;;;7.00;99.90;;;;;;5045534;28;20063;-79
2021/12/16 07:20:25;;;;;;;48.67;23.48;;;8.00;99.90;;;;;;5064818;28;20094;-74
2021/12/16 07:22:51;;;;;;;51.53;26.17;;;7.20;99.90;;;;;;5047921;28;20055;-80
2021/12/16 07:25:17;;;;;;;49.22;25.65;;;6.90;99.90;;;;;;5026272;28;20028;-80
2021/12/16 07:27:43;;;;;;;48.92;25.10;;;6.90;99.90;;;;;;5029043;28;20384;-78
2021/12/16 07:30:13;;;;;;;54.67;25.52;;;6.90;99.90;;;;;;5063270;28;20032;-80
2021/12/16 07:32:39;;;;;;;60.92;28.10;;;6.80;99.90;;;;;;5043604;28;20489;-80
2021/12/16 07:35:09;;;;;;;60.40;27.88;;;6.80;99.90;;;;;;5023436;28;20074;-79
2021/12/16 07:37:35;;;;;;;55.13;26.10;;;6.80;99.90;;;;;;5027894;28;20090;-79
2021/12/16 07:40:06;;;;;;;60.78;29.75;;;6.70;99.90;;;;;;5029285;28;20044;-79
2021/12/16 07:42:43;;;;;;;63.45;29.17;;;6.70;99.90;;;;;;5036952;28;20047;-79
2021/12/16 07:45:11;;;;;;;59.72;28.60;;;6.70;99.90;;;;;;5034658;28;20041;-79
2021/12/16 07:47:37;;;;;;;61.88;30.27;;;6.60;99.90;;;;;;5048127;28;20116;-80
2021/12/16 07:50:04;;;;;;;71.82;30.55;;;6.60;99.90;;;;;;5054737;28;20127;-80
2021/12/16 07:52:34;;;;;;;68.68;30.60;;;6.50;99.90;;;;;;5069261;28;20036;-80
2021/12/16 07:55:01;;;;;;;69.03;31.45;;;6.60;99.90;;;;;;5050804;28;20135;-80
2021/12/16 07:57:27;;;;;;;67.18;31.58;;;6.50;99.90;;;;;;5067903;28;20029;-80
2021/12/16 07:59:53;;;;;;;62.50;28.10;;;6.60;99.90;;;;;;5036146;28;20331;-80
2021/12/16 08:02:20;;;;;;;69.20;30.35;;;6.60;99.90;;;;;;5016158;28;20052;-80
2021/12/16 08:04:46;;;;;;;65.80;29.75;;;6.50;99.90;;;;;;5052840;28;20044;-80
2021/12/16 08:07:15;;;;;;;56.08;28.60;;;6.50;99.90;;;;;;5050916;28;20136;-80
2021/12/16 08:09:42;;;;;;;63.58;30.60;;;6.50;99.90;;;;;;5055975;28;20102;-79
2021/12/16 08:12:12;;;;;;;74.13;32.22;;;6.50;99.90;;;;;;5087606;28;20498;-79
2021/12/16 08:14:39;;;;;;;63.72;30.08;;;6.60;99.90;;;;;;5036530;28;20068;-79
2021/12/16 08:17:06;;;;;;;71.40;32.03;;;6.60;99.90;;;;;;5054776;28;20040;-79
2021/12/16 08:19:31;;;;;;;70.05;31.65;;;6.60;99.90;;;;;;5035370;28;20036;-79
2021/12/16 08:21:57;;;;;;;69.47;31.67;;;6.60;99.90;;;;;;5051094;28;20276;-79
2021/12/16 08:24:23;;;;;;;70.75;31.90;;;6.70;99.90;;;;;;5069400;28;20045;-80
2021/12/16 08:26:50;;;;;;;75.28;32.60;;;6.70;99.90;;;;;;5069682;28;20028;-80
2021/12/16 08:29:16;;;;;;;73.57;31.23;;;6.70;99.90;;;;;;5016086;28;20093;-80
2021/12/16 08:31:42;;;;;;;83.07;41.70;;;7.10;99.90;;;;;;5073853;28;20550;-80
2021/12/16 08:34:10;;;;;;;85.63;39.58;;;6.70;99.90;;;;;;5089477;28;20522;-80
2021/12/16 08:36:36;;;;;;;72.40;33.15;;;6.80;99.90;;;;;;5053174;28;20037;-80
2021/12/16 08:39:07;;;;;;;70.82;33.47;;;7.10;99.90;;;;;;5050333;28;20037;-80
2021/12/16 08:41:38;;;;;;;73.55;33.80;;;7.10;99.90;;;;;;5068166;28;20408;-80
2021/12/16 08:44:04;;;;;;;76.40;34.50;;;7.00;99.90;;;;;;5046175;28;20033;-80
2021/12/16 08:46:35;;;;;;;79.10;34.90;;;7.00;99.90;;;;;;5069466;28;20032;-80
2021/12/16 08:49:03;;;;;;;71.85;32.83;;;7.10;99.90;;;;;;5065661;28;20123;-80
2021/12/16 08:51:33;;;;;;;70.95;30.00;;;7.20;99.90;;;;;;5051065;28;20166;-80
2021/12/16 08:53:59;;;;;;;67.03;30.50;;;7.30;99.90;;;;;;5033036;28;20119;-80
2021/12/16 08:56:27;;;;;;;73.30;32.65;;;7.30;99.90;;;;;;5087169;28;20289;-80
2021/12/16 08:58:54;;;;;;;64.93;31.23;;;7.40;99.90;;;;;;5073144;28;20051;-80
2021/12/16 09:01:24;;;;;;;66.95;31.15;;;7.50;99.90;;;;;;5027594;28;20056;-80
2021/12/16 09:03:51;;;;;;;65.93;28.77;;;7.60;99.90;;;;;;5067259;28;20036;-80
2021/12/16 09:06:17;;;;;;;65.43;29.65;;;7.70;99.90;;;;;;5051359;28;20040;-80
2021/12/16 09:08:44;;;;;;;63.60;29.38;;;7.70;99.90;;;;;;5065670;28;20055;-80
2021/12/16 09:11:17;;;;;;;75.10;30.45;;;7.60;99.90;;;;;;5051491;28;20102;-81
2021/12/16 09:13:45;;;;;;;63.75;30.15;;;7.70;99.90;;;;;;5067526;28;20118;-81
2021/12/16 09:16:14;;;;;;;70.40;31.60;;;7.70;99.90;;;;;;5080184;28;20041;-80
2021/12/16 09:18:42;;;;;;;68.70;32.75;;;7.70;99.90;;;;;;5084813;28;20527;-80
2021/12/16 09:21:10;;;;;;;76.13;34.95;;;8.20;99.90;;;;;;5049627;28;20389;-80
2021/12/16 09:23:37;;;;;;;75.13;30.90;;;8.90;99.90;;;;;;5038779;28;20045;-80
2021/12/16 09:26:04;;;;;;;73.65;30.88;;;7.70;99.90;;;;;;5019523;28;20059;-80
2021/12/16 09:28:30;;;;;;;63.20;30.95;;;7.70;99.90;;;;;;5030950;28;20056;-80
2021/12/16 09:30:56;;;;;;;70.57;31.67;;;7.70;99.90;;;;;;5087245;28;20067;-80
2021/12/16 09:33:25;;;;;;;69.57;29.83;;;7.70;99.90;;;;;;5043645;28;20033;-80
2021/12/16 09:35:54;;;;;;;65.68;31.15;;;7.70;99.90;;;;;;5033244;28;20123;-80
2021/12/16 09:38:21;;;;;;;73.93;32.40;;;7.70;99.90;;;;;;5060464;28;20508;-80
2021/12/16 09:40:52;;;;;;;71.00;33.33;;;7.70;99.90;;;;;;5049857;28;20063;-80
2021/12/16 09:43:21;;;;;;;81.72;32.65;;;7.70;99.90;;;;;;5050914;28;20092;-80
2021/12/16 09:45:48;;;;;;;80.55;34.53;;;7.70;99.90;;;;;;5052595;28;20124;-80
2021/12/16 09:48:14;;;;;;;90.53;38.20;;;7.70;99.90;;;;;;5049531;28;20033;-80
2021/12/16 09:50:40;;;;;;;95.32;38.03;;;7.80;99.90;;;;;;5029884;28;20090;-81
2021/12/16 09:53:06;;;;;;;94.43;34.00;;;8.10;99.90;;;;;;5017060;28;20033;-79
2021/12/16 09:55:34;;;;;;;126.93;39.13;;;7.80;99.90;;;;;;5033134;28;20041;-80
2021/12/16 09:58:00;;;;;;;137.65;37.03;;;7.80;99.90;;;;;;5067383;28;20071;-80
2021/12/16 10:00:28;;;;;;;109.25;33.53;;;7.80;99.90;;;;;;5017954;28;20116;-80
2021/12/16 10:02:56;;;;;;;126.85;35.83;;;7.80;99.90;;;;;;5064985;28;20666;-80
2021/12/16 10:05:23;;;;;;;144.20;35.72;;;7.90;99.90;;;;;;5049763;28;20040;-80
2021/12/16 10:07:49;;;;;;;133.45;36.10;;;7.90;99.90;;;;;;5028940;28;20037;-81
2021/12/16 10:10:24;;;;;;;163.43;36.47;;;7.90;99.90;;;;;;5067151;28;20043;-80
2021/12/16 10:12:58;;;;;;;181.50;39.75;;;8.00;99.90;;;;;;5069641;28;20039;-80
2021/12/16 10:18:11;;;;;;;138.40;33.22;;;8.10;99.90;;;;;;5049942;28;20040;-81
2021/12/16 10:21:02;;;;;;;158.30;37.97;;;7.90;99.90;;;;;;5032715;28;20237;-81
2021/12/16 10:23:30;;;;;;;99.53;29.88;;;8.00;99.90;;;;;;5081691;28;20036;-81
2021/12/16 10:26:02;;;;;;;155.70;38.55;;;8.00;99.90;;;;;;5051366;28;20036;-81
2021/12/16 10:28:33;;;;;;;76.63;27.63;;;8.00;99.90;;;;;;5085094;28;20066;-81
2021/12/16 10:31:04;;;;;;;143.90;37.13;;;8.10;99.90;;;;;;5051089;28;20136;-81
2021/12/16 10:34:01;;;;;;;106.25;31.48;;;8.10;99.90;;;;;;5073981;28;20106;-81
2021/12/16 10:36:30;;;;;;;106.10;26.33;;;8.10;99.90;;;;;;5079745;28;20053;-81
2021/12/16 10:39:06;;;;;;;132.40;35.30;;;8.20;99.90;;;;;;5045041;28;20047;-80
2021/12/16 10:41:37;;;;;;;194.27;41.50;;;8.20;99.90;;;;;;5063023;28;20041;-81
2021/12/16 10:44:08;;;;;;;116.40;30.80;;;8.20;99.90;;;;;;5042618;28;20037;-81
2021/12/16 10:46:50;;;;;;;106.32;32.80;;;8.20;99.90;;;;;;5057425;28;20044;-81
2021/12/16 10:49:25;;;;;;;136.57;36.53;;;8.30;99.90;;;;;;5084986;28;20028;-81
2021/12/16 10:51:55;;;;;;;133.77;34.08;;;8.30;99.90;;;;;;5037067;28;20238;-81
2021/12/16 10:54:50;;;;;;;164.07;38.07;;;8.30;99.90;;;;;;5089130;28;20488;-81
2021/12/16 10:57:19;;;;;;;132.40;33.40;;;8.80;99.90;;;;;;5022995;28;20041;-81
2021/12/16 10:59:47;;;;;;;141.00;34.40;;;8.40;99.90;;;;;;5048467;28;20036;-80
2021/12/16 11:02:19;;;;;;;139.50;34.75;;;8.50;99.90;;;;;;5031304;28;20067;-80
2021/12/16 11:04:56;;;;;;;141.35;35.00;;;8.40;99.90;;;;;;5060809;28;20043;-80
2021/12/16 11:07:28;;;;;;;108.53;30.13;;;8.40;99.90;;;;;;5049852;28;20036;-79
2021/12/16 11:10:11;;;;;;;125.20;32.92;;;8.50;99.90;;;;;;5044242;28;20033;-80
2021/12/16 11:12:48;;;;;;;167.25;35.88;;;8.50;99.90;;;;;;5044300;28;21097;-80
2021/12/16 11:15:36;;;;;;;154.68;35.45;;;8.50;99.90;;;;;;5050530;28;20043;-80
2021/12/16 11:18:17;;;;;;;138.68;32.33;;;8.50;99.90;;;;;;5045934;28;21751;-80
2021/12/16 11:20:49;;;;;;;101.03;32.03;;;8.60;99.90;;;;;;5052935;28;20024;-80
2021/12/16 11:23:22;;;;;;;105.18;30.40;;;8.60;99.90;;;;;;5052147;28;20033;-80
2021/12/16 11:25:58;;;;;;;125.03;32.85;;;8.60;99.90;;;;;;5070347;28;20462;-80
2021/12/16 11:28:28;;;;;;;120.15;31.40;;;8.60;99.90;;;;;;5035694;28;20131;-80
2021/12/16 11:31:03;;;;;;;103.13;29.00;;;8.60;99.90;;;;;;5068694;28;20066;-80
2021/12/16 11:33:50;;;;;;;109.82;34.50;;;8.60;99.90;;;;;;5087482;28;20048;-80
2021/12/16 11:36:21;;;;;;;119.57;30.65;;;8.60;99.90;;;;;;5053515;28;20167;-80
2021/12/16 11:38:54;;;;;;;88.70;30.08;;;8.60;99.90;;;;;;5033973;28;20029;-80
2021/12/16 11:41:32;;;;;;;90.05;28.42;;;8.70;99.90;;;;;;5062667;28;20668;-79
2021/12/16 11:44:24;;;;;;;75.32;28.80;;;8.70;99.90;;;;;;5050488;28;20059;-79
2021/12/16 11:46:57;;;;;;;87.00;29.70;;;8.60;99.90;;;;;;5048739;28;20105;-80
2021/12/16 11:49:32;;;;;;;81.18;29.38;;;8.70;99.90;;;;;;5051697;28;20784;-80
2021/12/16 11:52:15;;;;;;;113.05;32.30;;;8.60;99.90;;;;;;5090016;28;20112;-80
2021/12/16 11:54:44;;;;;;;71.03;26.83;;;8.60;99.90;;;;;;5081060;28;20068;-80
2021/12/16 11:57:23;;;;;;;78.65;29.55;;;8.60;99.90;;;;;;5090977;28;20052;-80
2021/12/16 12:00:04;;;;;;;79.28;29.42;;;8.60;99.90;;;;;;5080030;28;20052;-81
2021/12/16 12:02:34;;;;;;;64.40;27.70;;;8.60;99.90;;;;;;5048112;28;20045;-81
2021/12/16 12:05:27;;;;;;;64.57;27.33;;;8.70;99.90;;;;;;5044394;28;20099;-81
2021/12/16 12:07:55;;;;;;;62.60;25.70;;;8.60;99.90;;;;;;5021869;28;20178;-80
2021/12/16 12:10:33;;;;;;;59.90;24.30;;;8.70;99.90;;;;;;5047263;28;20036;-81
2021/12/16 12:13:02;;;;;;;57.92;25.35;;;9.00;99.90;;;;;;5050137;28;20036;-81
2021/12/16 12:15:27;;;;;;;61.15;27.75;;;8.70;99.90;;;;;;5037692;28;20501;-80
2021/12/16 12:17:56;;;;;;;56.00;25.20;;;8.70;99.90;;;;;;5066919;28;20043;-80
2021/12/16 12:20:33;;;;;;;59.15;24.88;;;9.00;99.90;;;;;;5065751;28;20094;-79
2021/12/16 12:23:00;;;;;;;53.72;24.00;;;8.70;99.90;;;;;;5032899;28;20128;-79
2021/12/16 12:25:26;;;;;;;64.72;25.40;;;8.70;99.90;;;;;;5050816;28;20485;-79
2021/12/16 12:27:52;;;;;;;64.05;25.50;;;8.70;99.90;;;;;;5030455;28;20075;-80
2021/12/16 12:30:19;;;;;;;62.22;27.48;;;8.80;99.90;;;;;;5030840;28;20539;-78
2021/12/16 12:32:49;;;;;;;63.58;28.60;;;8.80;99.90;;;;;;5034160;28;20064;-78
2021/12/16 12:35:26;;;;;;;64.78;27.40;;;8.80;99.90;;;;;;5080921;28;20040;-78
2021/12/16 12:37:56;;;;;;;54.30;25.58;;;9.10;99.90;;;;;;5048755;28;20136;-78
2021/12/16 12:40:37;;;;;;;56.63;25.02;;;8.80;99.90;;;;;;5034844;28;20036;-80
2021/12/16 12:43:04;;;;;;;43.27;21.03;;;8.80;99.90;;;;;;5049356;28;20040;-79
2021/12/16 12:45:39;;;;;;;49.70;22.58;;;8.90;99.90;;;;;;5052394;28;20047;-81
2021/12/16 12:48:11;;;;;;;54.92;23.00;;;8.80;99.90;;;;;;5045363;28;20424;-81
2021/12/16 12:50:40;;;;;;;43.90;21.30;;;8.80;99.90;;;;;;5055742;28;20040;-81
2021/12/16 12:53:17;;;;;;;60.97;24.55;;;8.90;99.90;;;;;;5052035;28;20044;-81
2021/12/16 12:55:43;;;;;;;43.78;20.45;;;8.80;99.90;;;;;;5029520;28;20036;-79
2021/12/16 12:58:13;;;;;;;40.33;19.85;;;9.30;99.90;;;;;;5049912;28;20075;-79
2021/12/16 13:00:44;;;;;;;36.30;19.70;;;8.80;99.90;;;;;;5062849;28;20041;-79
2021/12/16 13:03:18;;;;;;;40.90;18.40;;;8.90;99.90;;;;;;5031974;28;20064;-79
2021/12/16 13:06:02;;;;;;;40.38;18.45;;;8.80;99.90;;;;;;5026256;28;20079;-79
2021/12/16 13:08:45;;;;;;;41.35;19.25;;;8.90;99.90;;;;;;5022956;28;20460;-80
2021/12/16 13:11:18;;;;;;;42.72;18.90;;;8.80;99.90;;;;;;5060663;28;20123;-80
2021/12/16 13:14:07;;;;;;;42.20;19.73;;;8.80;99.90;;;;;;5059079;28;20033;-80
2021/12/16 13:28:14;;;;;;;55.65;21.65;;;8.90;99.90;;;;;;5042068;28;20048;-78
2021/12/16 13:30:52;;;;;;;48.33;19.25;;;8.90;99.90;;;;;;5032187;28;20081;-79
2021/12/16 13:33:34;;;;;;;50.95;20.02;;;8.80;99.90;;;;;;4978702;28;20077;-79
2021/12/16 13:36:04;;;;;;;50.97;23.65;;;8.90;99.90;;;;;;4999254;28;20091;-80
2021/12/16 13:38:47;;;;;;;41.80;19.20;;;8.90;99.90;;;;;;5031925;28;20062;-80
2021/12/16 13:41:27;;;;;;;43.10;19.52;;;8.90;99.90;;;;;;4990615;28;20161;-80
2021/12/16 13:44:01;;;;;;;51.80;20.13;;;8.90;99.90;;;;;;4991855;28;20052;-80
2021/12/16 13:46:40;;;;;;;41.72;19.60;;;8.90;99.90;;;;;;5013049;28;20036;-81
2021/12/16 14:06:19;;;;;;;50.60;19.85;;;9.10;99.90;;;;;;4994768;28;20650;-80
2021/12/16 14:08:49;;;;;;;50.42;20.67;;;8.90;99.90;;;;;;5033905;28;20129;-81
2021/12/16 14:12:05;;;;;;;41.80;17.77;;;8.90;99.90;;;;;;5011859;28;20065;-80
2021/12/16 14:14:52;;;;;;;41.55;16.42;;;8.90;99.90;;;;;;5028113;28;20037;-80
2021/12/16 14:23:16;;;;;;;45.67;16.83;;;9.80;99.90;;;;;;5058527;28;20040;-81
2021/12/16 14:42:33;;;;;;;39.97;17.45;;;8.90;99.90;;;;;;5030363;28;20132;-82
2021/12/16 14:50:16;;;;;;;57.08;20.48;;;8.70;99.90;;;;;;5031513;28;20115;-82
2021/12/16 14:52:42;;;;;;;59.78;21.67;;;8.90;99.90;;;;;;5068551;28;20404;-82
2021/12/16 14:55:10;;;;;;;61.10;20.13;;;8.90;99.90;;;;;;5069357;28;20041;-82
2021/12/16 14:57:43;;;;;;;61.58;20.67;;;8.80;99.90;;;;;;5034594;28;20461;-82
2021/12/16 15:00:36;;;;;;;64.47;22.65;;;9.00;99.90;;;;;;5048109;28;20036;-82
2021/12/16 15:03:32;;;;;;;63.25;20.85;;;8.90;99.90;;;;;;5017663;28;20101;-82
2021/12/16 15:06:07;;;;;;;66.47;21.40;;;8.90;99.90;;;;;;5030690;28;20175;-82
2021/12/16 15:08:46;;;;;;;75.55;22.60;;;8.80;99.90;;;;;;5044384;28;20041;-83
2021/12/16 15:11:25;;;;;;;77.32;23.75;;;8.70;99.90;;;;;;5033560;28;20113;-82
2021/12/16 15:13:56;;;;;;;71.65;22.42;;;8.70;99.90;;;;;;5033621;28;20165;-82
2021/12/16 15:16:51;;;;;;;;;;;9.40;99.90;;;;;;5029561;28;20077;-82
2021/12/16 15:39:49;;;;;;;63.60;22.65;;;8.60;99.90;;;;;;5033926;28;20072;-81
2021/12/16 15:45:10;;;;;;;51.13;19.50;;;8.70;99.90;;;;;;5058056;28;20046;-81
2021/12/16 15:47:44;;;;;;;48.67;16.38;;;8.50;99.90;;;;;;5052348;28;20496;-81
2021/12/16 15:50:11;;;;;;;47.20;17.48;;;8.70;99.90;;;;;;5042988;28;20145;-81
2021/12/16 15:52:42;;;;;;;44.63;17.90;;;8.60;99.90;;;;;;5018301;28;20453;-81
2021/12/16 15:55:15;;;;;;;52.65;17.85;;;8.70;99.90;;;;;;5026983;28;20120;-81
2021/12/16 15:57:41;;;;;;;53.33;17.08;;;8.40;99.90;;;;;;5048680;28;20115;-82
2021/12/16 16:00:14;;;;;;;70.88;20.38;;;8.50;99.90;;;;;;5029093;28;20052;-81
2021/12/16 16:02:40;;;;;;;62.85;20.98;;;8.60;99.90;;;;;;5031291;28;20057;-82
2021/12/16 16:05:07;;;;;;;58.55;20.13;;;8.90;99.90;;;;;;5015803;28;20112;-82
2021/12/16 16:07:37;;;;;;;51.65;19.98;;;8.40;99.90;;;;;;5002694;28;20063;-82
2021/12/16 16:10:05;;;;;;;55.55;19.40;;;8.40;99.90;;;;;;5017274;28;20044;-82
2021/12/16 16:12:33;;;;;;;55.83;20.98;;;8.40;99.90;;;;;;5019891;28;20512;-81
2021/12/16 16:15:16;;;;;;;45.47;18.25;;;8.40;99.90;;;;;;4999770;28;20045;-82
2021/12/16 16:18:11;;;;;;;58.42;20.60;;;8.40;99.90;;;;;;5037119;28;20501;-82
2021/12/16 16:20:38;;;;;;;59.17;20.27;;;8.40;99.90;;;;;;5032589;28;20047;-82
2021/12/16 16:23:10;;;;;;;62.92;21.67;;;8.40;99.90;;;;;;5017677;28;20103;-82
2021/12/16 16:25:37;;;;;;;63.58;22.10;;;8.40;99.90;;;;;;5050261;28;20041;-83
2021/12/16 16:28:04;;;;;;;59.97;20.73;;;8.50;99.90;;;;;;5001101;28;20037;-82
2021/12/16 16:30:30;;;;;;;60.85;21.35;;;8.40;99.90;;;;;;5030269;28;20033;-82
2021/12/16 16:33:10;;;;;;;70.43;23.17;;;8.40;99.90;;;;;;5045466;28;20064;-82
2021/12/16 16:35:48;;;;;;;69.68;21.70;;;8.40;99.90;;;;;;5062916;28;20040;-83
2021/12/16 16:38:21;;;;;;;48.10;19.38;;;8.40;99.90;;;;;;5032336;28;20501;-79
2021/12/16 16:40:53;;;;;;;52.00;19.42;;;8.30;99.90;;;;;;5044603;28;20048;-79